Delta Virtual Airport Information Service

Bethel Airport

ICAO: PABE Country: United States
Latitude: 60.7798 Longitude: -161.838
Latest Arrival : ASA97 (PANC-PABE) Latest Departure : DAX366 (PABE-MMCL)


WX CaptureLIVE
Data provided by noaa.gov | Fetched at 09:55:53

METAR : PABE 231502Z AUTO 33015KT 5SM -SN BR FEW015 BKN020 OVC028 M06/M07 A2923

TAF : PABE 231140Z 2312/2412 36015KT 2SM -SN BR OVC020 FM231600 33014KT 6SM -SN BR OVC025 FM231900 30010KT P6SM BKN080 FM240000 21009KT P6SM BKN080 FM240500 14015G25KT P6SM SCT025 BKN035 FM240800 14020G30KT 4SM -SN BR OVC015


Runway Data for PABE
Data provided by openaviationdata.com

Runway ID Mag Var Hdg Length Elevation Surface ILS Freq ILS Id ILS Slope
11 18 110° 1845 ft 123 ft Gravel -- -- --
18 18 185° 6381 ft 123 ft Asphalt 111.5 IBET 3
29 18 290° 1845 ft 123 ft Gravel -- -- --
36 18 6381 ft 123 ft Asphalt -- -- --

Bethel Airport, United States
Use only for reference purposes



Not for navigational purposes.